sensor_id;sensor_type;location;lat;lon;timestamp;P1;durP1;ratioP1;P2;durP2;ratioP2
13816;SDS011;6979;52.116;5.286;2022-07-23T00:00:43;2.13;;;1.93;;
13816;SDS011;6979;52.116;5.286;2022-07-23T00:03:10;1.90;;;1.80;;
13816;SDS011;6979;52.116;5.286;2022-07-23T00:05:36;1.87;;;1.77;;
13816;SDS011;6979;52.116;5.286;2022-07-23T00:08:04;1.90;;;1.80;;
13816;SDS011;6979;52.116;5.286;2022-07-23T00:10:31;1.70;;;1.60;;
13816;SDS011;6979;52.116;5.286;2022-07-23T00:12:58;2.10;;;1.73;;
13816;SDS011;6979;52.116;5.286;2022-07-23T00:15:25;1.57;;;1.47;;
13816;SDS011;6979;52.116;5.286;2022-07-23T00:17:53;1.30;;;1.30;;
13816;SDS011;6979;52.116;5.286;2022-07-23T00:20:20;1.50;;;1.40;;
13816;SDS011;6979;52.116;5.286;2022-07-23T00:22:47;1.20;;;1.20;;
13816;SDS011;6979;52.116;5.286;2022-07-23T00:25:14;1.60;;;1.50;;
13816;SDS011;6979;52.116;5.286;2022-07-23T00:27:41;1.37;;;1.30;;
13816;SDS011;6979;52.116;5.286;2022-07-23T00:30:09;1.70;;;1.60;;
13816;SDS011;6979;52.116;5.286;2022-07-23T00:32:44;1.70;;;1.60;;
13816;SDS011;6979;52.116;5.286;2022-07-23T00:35:13;1.77;;;1.67;;
13816;SDS011;6979;52.116;5.286;2022-07-23T00:37:40;1.80;;;1.70;;
13816;SDS011;6979;52.116;5.286;2022-07-23T00:40:08;1.63;;;1.60;;
13816;SDS011;6979;52.116;5.286;2022-07-23T00:42:36;1.83;;;1.73;;
13816;SDS011;6979;52.116;5.286;2022-07-23T00:45:03;1.67;;;1.57;;
13816;SDS011;6979;52.116;5.286;2022-07-23T00:47:31;2.20;;;2.10;;
13816;SDS011;6979;52.116;5.286;2022-07-23T00:49:58;1.60;;;1.50;;
13816;SDS011;6979;52.116;5.286;2022-07-23T00:52:26;1.57;;;1.47;;
13816;SDS011;6979;52.116;5.286;2022-07-23T00:54:53;1.97;;;1.80;;
13816;SDS011;6979;52.116;5.286;2022-07-23T00:57:20;1.97;;;1.67;;
13816;SDS011;6979;52.116;5.286;2022-07-23T00:59:47;1.60;;;1.50;;
13816;SDS011;6979;52.116;5.286;2022-07-23T01:02:14;1.70;;;1.60;;
13816;SDS011;6979;52.116;5.286;2022-07-23T01:04:40;2.37;;;2.17;;
13816;SDS011;6979;52.116;5.286;2022-07-23T01:07:07;2.97;;;1.60;;
13816;SDS011;6979;52.116;5.286;2022-07-23T01:09:36;1.53;;;1.53;;
13816;SDS011;6979;52.116;5.286;2022-07-23T01:12:03;1.67;;;1.53;;
13816;SDS011;6979;52.116;5.286;2022-07-23T01:14:31;1.17;;;1.17;;
13816;SDS011;6979;52.116;5.286;2022-07-23T01:16:58;1.73;;;1.63;;
13816;SDS011;6979;52.116;5.286;2022-07-23T01:19:24;1.63;;;1.53;;
13816;SDS011;6979;52.116;5.286;2022-07-23T01:21:51;1.80;;;1.70;;
13816;SDS011;6979;52.116;5.286;2022-07-23T01:24:22;2.30;;;2.10;;
13816;SDS011;6979;52.116;5.286;2022-07-23T01:26:57;1.63;;;1.60;;
13816;SDS011;6979;52.116;5.286;2022-07-23T01:29:24;1.80;;;1.70;;
13816;SDS011;6979;52.116;5.286;2022-07-23T01:31:53;1.67;;;1.57;;
13816;SDS011;6979;52.116;5.286;2022-07-23T01:34:19;1.80;;;1.70;;
13816;SDS011;6979;52.116;5.286;2022-07-23T01:36:46;2.27;;;1.60;;
13816;SDS011;6979;52.116;5.286;2022-07-23T01:39:15;1.50;;;1.50;;
13816;SDS011;6979;52.116;5.286;2022-07-23T01:41:43;1.77;;;1.67;;
13816;SDS011;6979;52.116;5.286;2022-07-23T01:44:12;1.80;;;1.70;;
13816;SDS011;6979;52.116;5.286;2022-07-23T01:46:40;1.80;;;1.70;;
13816;SDS011;6979;52.116;5.286;2022-07-23T01:49:08;1.73;;;1.70;;
13816;SDS011;6979;52.116;5.286;2022-07-23T01:51:53;1.83;;;1.73;;
13816;SDS011;6979;52.116;5.286;2022-07-23T01:54:31;1.70;;;1.53;;
13816;SDS011;6979;52.116;5.286;2022-07-23T01:57:01;1.67;;;1.57;;
13816;SDS011;6979;52.116;5.286;2022-07-23T01:59:28;1.67;;;1.57;;
13816;SDS011;6979;52.116;5.286;2022-07-23T02:01:56;2.20;;;2.00;;
13816;SDS011;6979;52.116;5.286;2022-07-23T02:04:24;1.87;;;1.80;;
13816;SDS011;6979;52.116;5.286;2022-07-23T02:06:51;1.70;;;1.60;;
13816;SDS011;6979;52.116;5.286;2022-07-23T02:09:18;2.10;;;2.00;;
13816;SDS011;6979;52.116;5.286;2022-07-23T02:11:46;1.93;;;1.80;;
13816;SDS011;6979;52.116;5.286;2022-07-23T02:14:14;1.57;;;1.47;;
13816;SDS011;6979;52.116;5.286;2022-07-23T02:16:41;2.30;;;2.13;;
13816;SDS011;6979;52.116;5.286;2022-07-23T02:19:07;1.97;;;1.87;;
13816;SDS011;6979;52.116;5.286;2022-07-23T02:21:35;1.90;;;1.80;;
13816;SDS011;6979;52.116;5.286;2022-07-23T02:24:03;2.00;;;1.90;;
13816;SDS011;6979;52.116;5.286;2022-07-23T02:26:30;2.03;;;1.93;;
13816;SDS011;6979;52.116;5.286;2022-07-23T02:29:01;2.00;;;1.90;;
13816;SDS011;6979;52.116;5.286;2022-07-23T02:31:29;1.77;;;1.67;;
13816;SDS011;6979;52.116;5.286;2022-07-23T02:33:56;1.70;;;1.60;;
13816;SDS011;6979;52.116;5.286;2022-07-23T02:36:24;2.00;;;1.90;;
13816;SDS011;6979;52.116;5.286;2022-07-23T02:38:52;1.77;;;1.70;;
13816;SDS011;6979;52.116;5.286;2022-07-23T02:41:18;1.60;;;1.50;;
13816;SDS011;6979;52.116;5.286;2022-07-23T02:43:45;3.10;;;2.20;;
13816;SDS011;6979;52.116;5.286;2022-07-23T02:46:13;1.93;;;1.83;;
13816;SDS011;6979;52.116;5.286;2022-07-23T02:48:42;1.67;;;1.57;;
13816;SDS011;6979;52.116;5.286;2022-07-23T02:51:09;1.97;;;1.87;;
13816;SDS011;6979;52.116;5.286;2022-07-23T02:53:41;2.20;;;2.10;;
13816;SDS011;6979;52.116;5.286;2022-07-23T02:56:08;2.13;;;2.03;;
13816;SDS011;6979;52.116;5.286;2022-07-23T02:58:35;1.93;;;1.83;;
13816;SDS011;6979;52.116;5.286;2022-07-23T03:01:03;2.17;;;2.03;;
13816;SDS011;6979;52.116;5.286;2022-07-23T03:03:29;1.90;;;1.80;;
13816;SDS011;6979;52.116;5.286;2022-07-23T03:05:58;2.33;;;2.23;;
13816;SDS011;6979;52.116;5.286;2022-07-23T03:08:24;1.93;;;1.83;;
13816;SDS011;6979;52.116;5.286;2022-07-23T03:10:52;2.43;;;2.33;;
13816;SDS011;6979;52.116;5.286;2022-07-23T03:13:19;2.47;;;1.90;;
13816;SDS011;6979;52.116;5.286;2022-07-23T03:15:45;2.23;;;2.13;;
13816;SDS011;6979;52.116;5.286;2022-07-23T03:18:12;2.27;;;2.17;;
13816;SDS011;6979;52.116;5.286;2022-07-23T03:20:39;2.00;;;1.80;;
13816;SDS011;6979;52.116;5.286;2022-07-23T03:23:09;1.90;;;1.80;;
13816;SDS011;6979;52.116;5.286;2022-07-23T03:25:36;1.90;;;1.80;;
13816;SDS011;6979;52.116;5.286;2022-07-23T03:28:03;2.10;;;1.87;;
13816;SDS011;6979;52.116;5.286;2022-07-23T03:30:30;2.03;;;1.93;;
13816;SDS011;6979;52.116;5.286;2022-07-23T03:32:57;2.00;;;1.90;;
13816;SDS011;6979;52.116;5.286;2022-07-23T03:35:24;2.03;;;1.93;;
13816;SDS011;6979;52.116;5.286;2022-07-23T03:38:08;1.60;;;1.53;;
13816;SDS011;6979;52.116;5.286;2022-07-23T03:40:35;1.50;;;1.50;;
13816;SDS011;6979;52.116;5.286;2022-07-23T03:43:02;1.90;;;1.80;;
13816;SDS011;6979;52.116;5.286;2022-07-23T03:45:29;1.77;;;1.67;;
13816;SDS011;6979;52.116;5.286;2022-07-23T03:47:55;1.73;;;1.63;;
13816;SDS011;6979;52.116;5.286;2022-07-23T03:50:23;1.77;;;1.70;;
13816;SDS011;6979;52.116;5.286;2022-07-23T03:52:50;2.13;;;2.03;;
13816;SDS011;6979;52.116;5.286;2022-07-23T03:55:18;1.80;;;1.70;;
13816;SDS011;6979;52.116;5.286;2022-07-23T03:57:45;2.00;;;1.90;;
13816;SDS011;6979;52.116;5.286;2022-07-23T04:00:12;2.17;;;1.97;;
13816;SDS011;6979;52.116;5.286;2022-07-23T04:02:41;2.60;;;1.70;;
13816;SDS011;6979;52.116;5.286;2022-07-23T04:05:10;1.70;;;1.60;;
13816;SDS011;6979;52.116;5.286;2022-07-23T04:07:37;1.50;;;1.40;;
13816;SDS011;6979;52.116;5.286;2022-07-23T04:10:05;1.27;;;1.27;;
13816;SDS011;6979;52.116;5.286;2022-07-23T04:12:34;1.90;;;1.80;;
13816;SDS011;6979;52.116;5.286;2022-07-23T04:15:02;1.40;;;1.40;;
13816;SDS011;6979;52.116;5.286;2022-07-23T04:17:31;1.50;;;1.40;;
13816;SDS011;6979;52.116;5.286;2022-07-23T04:19:57;1.70;;;1.60;;
13816;SDS011;6979;52.116;5.286;2022-07-23T04:22:29;1.80;;;1.70;;
13816;SDS011;6979;52.116;5.286;2022-07-23T04:24:56;1.50;;;1.40;;
13816;SDS011;6979;52.116;5.286;2022-07-23T04:27:23;1.97;;;1.87;;
13816;SDS011;6979;52.116;5.286;2022-07-23T04:29:51;1.83;;;1.73;;
13816;SDS011;6979;52.116;5.286;2022-07-23T04:32:18;1.30;;;1.30;;
13816;SDS011;6979;52.116;5.286;2022-07-23T04:34:45;1.70;;;1.60;;
13816;SDS011;6979;52.116;5.286;2022-07-23T04:37:12;1.77;;;1.70;;
13816;SDS011;6979;52.116;5.286;2022-07-23T04:39:39;1.43;;;1.43;;
13816;SDS011;6979;52.116;5.286;2022-07-23T04:42:06;1.67;;;1.60;;
13816;SDS011;6979;52.116;5.286;2022-07-23T04:44:32;1.80;;;1.70;;
13816;SDS011;6979;52.116;5.286;2022-07-23T04:47:03;1.87;;;1.77;;
13816;SDS011;6979;52.116;5.286;2022-07-23T04:49:30;1.90;;;1.80;;
13816;SDS011;6979;52.116;5.286;2022-07-23T04:51:56;1.37;;;1.37;;
13816;SDS011;6979;52.116;5.286;2022-07-23T04:54:23;1.50;;;1.50;;
13816;SDS011;6979;52.116;5.286;2022-07-23T04:56:50;1.47;;;1.37;;
13816;SDS011;6979;52.116;5.286;2022-07-23T04:59:17;1.97;;;1.87;;
13816;SDS011;6979;52.116;5.286;2022-07-23T05:01:45;1.60;;;1.50;;
13816;SDS011;6979;52.116;5.286;2022-07-23T05:04:15;1.97;;;1.87;;
13816;SDS011;6979;52.116;5.286;2022-07-23T05:06:42;1.77;;;1.67;;
13816;SDS011;6979;52.116;5.286;2022-07-23T05:09:09;1.60;;;1.60;;
13816;SDS011;6979;52.116;5.286;2022-07-23T05:11:37;1.87;;;1.77;;
13816;SDS011;6979;52.116;5.286;2022-07-23T05:14:04;4.97;;;2.13;;
13816;SDS011;6979;52.116;5.286;2022-07-23T05:16:32;1.93;;;1.83;;
13816;SDS011;6979;52.116;5.286;2022-07-23T05:19:05;2.10;;;2.00;;
13816;SDS011;6979;52.116;5.286;2022-07-23T05:21:35;1.93;;;1.83;;
13816;SDS011;6979;52.116;5.286;2022-07-23T05:24:02;2.60;;;2.00;;
13816;SDS011;6979;52.116;5.286;2022-07-23T05:26:29;2.07;;;1.97;;
13816;SDS011;6979;52.116;5.286;2022-07-23T05:28:56;2.27;;;2.17;;
13816;SDS011;6979;52.116;5.286;2022-07-23T05:31:24;2.07;;;1.97;;
13816;SDS011;6979;52.116;5.286;2022-07-23T05:33:51;2.10;;;2.00;;
13816;SDS011;6979;52.116;5.286;2022-07-23T05:36:17;2.40;;;2.27;;
13816;SDS011;6979;52.116;5.286;2022-07-23T05:38:57;1.77;;;1.67;;
13816;SDS011;6979;52.116;5.286;2022-07-23T05:41:25;1.90;;;1.80;;
13816;SDS011;6979;52.116;5.286;2022-07-23T05:43:52;2.23;;;1.97;;
13816;SDS011;6979;52.116;5.286;2022-07-23T05:46:19;6.13;;;5.53;;
13816;SDS011;6979;52.116;5.286;2022-07-23T05:48:50;4.50;;;4.13;;
13816;SDS011;6979;52.116;5.286;2022-07-23T05:51:46;4.13;;;3.57;;
13816;SDS011;6979;52.116;5.286;2022-07-23T05:54:17;3.60;;;2.83;;
13816;SDS011;6979;52.116;5.286;2022-07-23T05:56:44;2.57;;;2.47;;
13816;SDS011;6979;52.116;5.286;2022-07-23T05:59:11;2.63;;;2.47;;
13816;SDS011;6979;52.116;5.286;2022-07-23T06:01:39;2.57;;;2.47;;
13816;SDS011;6979;52.116;5.286;2022-07-23T06:04:09;3.10;;;2.23;;
13816;SDS011;6979;52.116;5.286;2022-07-23T06:06:40;2.70;;;2.50;;
13816;SDS011;6979;52.116;5.286;2022-07-23T06:09:10;2.27;;;2.17;;
13816;SDS011;6979;52.116;5.286;2022-07-23T06:11:40;2.47;;;2.27;;
13816;SDS011;6979;52.116;5.286;2022-07-23T06:14:07;2.20;;;2.10;;
13816;SDS011;6979;52.116;5.286;2022-07-23T06:16:49;6.93;;;6.33;;
13816;SDS011;6979;52.116;5.286;2022-07-23T06:19:16;4.90;;;4.37;;
13816;SDS011;6979;52.116;5.286;2022-07-23T06:21:43;3.23;;;2.93;;
13816;SDS011;6979;52.116;5.286;2022-07-23T06:24:10;2.40;;;2.20;;
13816;SDS011;6979;52.116;5.286;2022-07-23T06:26:37;2.10;;;2.00;;
13816;SDS011;6979;52.116;5.286;2022-07-23T06:29:06;2.13;;;2.03;;
13816;SDS011;6979;52.116;5.286;2022-07-23T06:31:32;1.97;;;1.87;;
13816;SDS011;6979;52.116;5.286;2022-07-23T06:33:59;1.53;;;1.53;;
13816;SDS011;6979;52.116;5.286;2022-07-23T06:36:26;1.87;;;1.77;;
13816;SDS011;6979;52.116;5.286;2022-07-23T06:38:53;2.50;;;2.30;;
13816;SDS011;6979;52.116;5.286;2022-07-23T06:41:20;1.73;;;1.63;;
13816;SDS011;6979;52.116;5.286;2022-07-23T06:43:47;1.93;;;1.77;;
13816;SDS011;6979;52.116;5.286;2022-07-23T06:46:17;1.50;;;1.37;;
13816;SDS011;6979;52.116;5.286;2022-07-23T06:48:46;2.07;;;1.97;;
13816;SDS011;6979;52.116;5.286;2022-07-23T06:51:12;2.00;;;1.83;;
13816;SDS011;6979;52.116;5.286;2022-07-23T06:53:39;1.57;;;1.47;;
13816;SDS011;6979;52.116;5.286;2022-07-23T06:56:08;1.30;;;1.30;;
13816;SDS011;6979;52.116;5.286;2022-07-23T06:58:35;1.50;;;1.40;;
13816;SDS011;6979;52.116;5.286;2022-07-23T07:01:02;1.20;;;1.20;;
13816;SDS011;6979;52.116;5.286;2022-07-23T07:03:30;1.43;;;1.43;;
13816;SDS011;6979;52.116;5.286;2022-07-23T07:05:56;1.80;;;1.70;;
13816;SDS011;6979;52.116;5.286;2022-07-23T07:08:23;1.63;;;1.30;;
13816;SDS011;6979;52.116;5.286;2022-07-23T07:10:50;1.50;;;1.50;;
13816;SDS011;6979;52.116;5.286;2022-07-23T07:13:17;1.30;;;1.30;;
13816;SDS011;6979;52.116;5.286;2022-07-23T07:15:44;2.10;;;1.60;;
13816;SDS011;6979;52.116;5.286;2022-07-23T07:18:11;1.33;;;1.30;;
13816;SDS011;6979;52.116;5.286;2022-07-23T07:20:39;1.90;;;1.47;;
13816;SDS011;6979;52.116;5.286;2022-07-23T07:23:05;1.20;;;1.20;;
13816;SDS011;6979;52.116;5.286;2022-07-23T07:25:33;1.60;;;1.60;;
13816;SDS011;6979;52.116;5.286;2022-07-23T07:28:00;1.17;;;1.13;;
13816;SDS011;6979;52.116;5.286;2022-07-23T07:30:27;1.40;;;1.30;;
13816;SDS011;6979;52.116;5.286;2022-07-23T07:32:54;1.17;;;1.03;;
13816;SDS011;6979;52.116;5.286;2022-07-23T07:35:20;1.57;;;1.47;;
13816;SDS011;6979;52.116;5.286;2022-07-23T07:37:49;1.30;;;1.27;;
13816;SDS011;6979;52.116;5.286;2022-07-23T07:40:15;1.17;;;1.17;;
13816;SDS011;6979;52.116;5.286;2022-07-23T07:42:45;1.27;;;1.27;;
13816;SDS011;6979;52.116;5.286;2022-07-23T07:45:13;1.27;;;1.27;;
13816;SDS011;6979;52.116;5.286;2022-07-23T07:47:40;1.10;;;1.10;;
13816;SDS011;6979;52.116;5.286;2022-07-23T07:50:07;1.80;;;1.70;;
13816;SDS011;6979;52.116;5.286;2022-07-23T07:52:34;1.47;;;1.37;;
13816;SDS011;6979;52.116;5.286;2022-07-23T07:55:03;1.03;;;1.03;;
13816;SDS011;6979;52.116;5.286;2022-07-23T07:57:31;1.10;;;1.10;;
13816;SDS011;6979;52.116;5.286;2022-07-23T07:59:58;1.33;;;1.33;;
13816;SDS011;6979;52.116;5.286;2022-07-23T08:02:25;1.17;;;1.17;;
13816;SDS011;6979;52.116;5.286;2022-07-23T08:04:52;1.53;;;1.30;;
13816;SDS011;6979;52.116;5.286;2022-07-23T08:07:21;1.27;;;1.27;;
13816;SDS011;6979;52.116;5.286;2022-07-23T08:09:47;1.57;;;1.17;;
13816;SDS011;6979;52.116;5.286;2022-07-23T08:12:16;1.10;;;1.10;;
13816;SDS011;6979;52.116;5.286;2022-07-23T08:14:42;1.03;;;1.03;;
13816;SDS011;6979;52.116;5.286;2022-07-23T08:17:09;1.20;;;1.20;;
13816;SDS011;6979;52.116;5.286;2022-07-23T08:19:36;1.13;;;1.13;;
13816;SDS011;6979;52.116;5.286;2022-07-23T08:22:03;1.20;;;1.20;;
13816;SDS011;6979;52.116;5.286;2022-07-23T08:24:30;1.10;;;1.10;;
13816;SDS011;6979;52.116;5.286;2022-07-23T08:26:57;1.23;;;1.10;;
13816;SDS011;6979;52.116;5.286;2022-07-23T08:29:25;1.93;;;1.23;;
13816;SDS011;6979;52.116;5.286;2022-07-23T08:31:51;1.00;;;1.00;;
13816;SDS011;6979;52.116;5.286;2022-07-23T08:34:18;1.47;;;1.33;;
13816;SDS011;6979;52.116;5.286;2022-07-23T08:36:45;1.30;;;1.30;;
13816;SDS011;6979;52.116;5.286;2022-07-23T08:39:12;1.30;;;1.20;;
13816;SDS011;6979;52.116;5.286;2022-07-23T08:41:39;0.90;;;0.90;;
13816;SDS011;6979;52.116;5.286;2022-07-23T08:44:07;1.70;;;1.60;;
13816;SDS011;6979;52.116;5.286;2022-07-23T08:46:36;1.03;;;1.03;;
13816;SDS011;6979;52.116;5.286;2022-07-23T08:49:04;1.10;;;1.10;;
13816;SDS011;6979;52.116;5.286;2022-07-23T08:51:31;1.37;;;1.27;;
13816;SDS011;6979;52.116;5.286;2022-07-23T08:53:58;1.10;;;1.00;;
13816;SDS011;6979;52.116;5.286;2022-07-23T08:56:26;1.10;;;1.10;;
13816;SDS011;6979;52.116;5.286;2022-07-23T08:58:53;1.07;;;1.00;;
13816;SDS011;6979;52.116;5.286;2022-07-23T09:01:20;1.07;;;1.07;;
13816;SDS011;6979;52.116;5.286;2022-07-23T09:03:48;1.20;;;1.13;;
13816;SDS011;6979;52.116;5.286;2022-07-23T09:06:15;0.87;;;0.87;;
13816;SDS011;6979;52.116;5.286;2022-07-23T09:08:42;0.80;;;0.80;;
13816;SDS011;6979;52.116;5.286;2022-07-23T09:11:12;1.10;;;0.80;;
13816;SDS011;6979;52.116;5.286;2022-07-23T09:13:42;1.07;;;1.07;;
13816;SDS011;6979;52.116;5.286;2022-07-23T09:16:13;0.87;;;0.87;;
13816;SDS011;6979;52.116;5.286;2022-07-23T09:18:42;0.90;;;0.90;;
13816;SDS011;6979;52.116;5.286;2022-07-23T09:21:16;0.90;;;0.80;;
13816;SDS011;6979;52.116;5.286;2022-07-23T09:23:49;0.80;;;0.80;;
13816;SDS011;6979;52.116;5.286;2022-07-23T09:26:18;1.07;;;1.07;;
13816;SDS011;6979;52.116;5.286;2022-07-23T09:28:56;1.00;;;1.00;;
13816;SDS011;6979;52.116;5.286;2022-07-23T09:31:32;1.63;;;0.90;;
13816;SDS011;6979;52.116;5.286;2022-07-23T09:34:06;0.80;;;0.80;;
13816;SDS011;6979;52.116;5.286;2022-07-23T09:36:36;2.77;;;1.10;;
13816;SDS011;6979;52.116;5.286;2022-07-23T09:39:03;0.97;;;0.97;;
13816;SDS011;6979;52.116;5.286;2022-07-23T09:41:34;0.73;;;0.73;;
13816;SDS011;6979;52.116;5.286;2022-07-23T09:44:06;0.73;;;0.73;;
13816;SDS011;6979;52.116;5.286;2022-07-23T09:46:35;0.73;;;0.73;;
13816;SDS011;6979;52.116;5.286;2022-07-23T09:49:09;0.80;;;0.80;;
13816;SDS011;6979;52.116;5.286;2022-07-23T09:51:44;0.80;;;0.80;;
13816;SDS011;6979;52.116;5.286;2022-07-23T09:54:32;0.83;;;0.83;;
13816;SDS011;6979;52.116;5.286;2022-07-23T09:57:02;1.17;;;0.90;;
13816;SDS011;6979;52.116;5.286;2022-07-23T09:59:33;0.77;;;0.77;;
13816;SDS011;6979;52.116;5.286;2022-07-23T10:02:01;0.90;;;0.90;;
13816;SDS011;6979;52.116;5.286;2022-07-23T10:04:35;1.20;;;0.80;;
13816;SDS011;6979;52.116;5.286;2022-07-23T10:07:17;1.00;;;1.00;;
13816;SDS011;6979;52.116;5.286;2022-07-23T10:10:05;1.10;;;1.00;;
13816;SDS011;6979;52.116;5.286;2022-07-23T10:12:59;1.20;;;1.20;;
13816;SDS011;6979;52.116;5.286;2022-07-23T10:15:46;0.77;;;0.77;;
13816;SDS011;6979;52.116;5.286;2022-07-23T10:18:13;1.10;;;1.10;;
13816;SDS011;6979;52.116;5.286;2022-07-23T10:20:40;0.90;;;0.90;;
13816;SDS011;6979;52.116;5.286;2022-07-23T10:23:10;1.03;;;0.93;;
13816;SDS011;6979;52.116;5.286;2022-07-23T10:25:46;1.10;;;1.10;;
13816;SDS011;6979;52.116;5.286;2022-07-23T10:28:37;0.97;;;0.97;;
13816;SDS011;6979;52.116;5.286;2022-07-23T10:31:24;0.97;;;0.97;;
13816;SDS011;6979;52.116;5.286;2022-07-23T10:34:00;1.00;;;1.00;;
13816;SDS011;6979;52.116;5.286;2022-07-23T10:36:36;0.70;;;0.70;;
13816;SDS011;6979;52.116;5.286;2022-07-23T10:39:11;1.07;;;1.07;;
13816;SDS011;6979;52.116;5.286;2022-07-23T10:41:41;1.07;;;1.07;;
13816;SDS011;6979;52.116;5.286;2022-07-23T10:44:09;1.00;;;1.00;;
13816;SDS011;6979;52.116;5.286;2022-07-23T10:49:42;0.87;;;0.87;;
13816;SDS011;6979;52.116;5.286;2022-07-23T10:52:16;1.50;;;1.40;;
13816;SDS011;6979;52.116;5.286;2022-07-23T10:54:46;1.03;;;1.03;;
13816;SDS011;6979;52.116;5.286;2022-07-23T10:57:15;1.60;;;1.50;;
13816;SDS011;6979;52.116;5.286;2022-07-23T11:02:54;1.23;;;1.13;;
13816;SDS011;6979;52.116;5.286;2022-07-23T11:05:23;1.03;;;1.03;;
13816;SDS011;6979;52.116;5.286;2022-07-23T11:08:11;1.10;;;1.10;;
13816;SDS011;6979;52.116;5.286;2022-07-23T11:10:50;1.43;;;1.17;;
13816;SDS011;6979;52.116;5.286;2022-07-23T11:13:28;1.20;;;1.20;;
13816;SDS011;6979;52.116;5.286;2022-07-23T11:16:07;0.93;;;0.93;;
13816;SDS011;6979;52.116;5.286;2022-07-23T11:21:41;1.73;;;1.03;;
13816;SDS011;6979;52.116;5.286;2022-07-23T11:24:10;1.00;;;1.00;;
13816;SDS011;6979;52.116;5.286;2022-07-23T11:26:46;0.90;;;0.90;;
13816;SDS011;6979;52.116;5.286;2022-07-23T11:35:00;1.30;;;1.20;;
13816;SDS011;6979;52.116;5.286;2022-07-23T11:37:32;1.30;;;1.20;;
13816;SDS011;6979;52.116;5.286;2022-07-23T11:40:02;1.00;;;1.00;;
13816;SDS011;6979;52.116;5.286;2022-07-23T11:42:33;1.60;;;1.50;;
13816;SDS011;6979;52.116;5.286;2022-07-23T11:45:02;1.60;;;1.50;;
13816;SDS011;6979;52.116;5.286;2022-07-23T11:47:31;1.50;;;1.40;;
13816;SDS011;6979;52.116;5.286;2022-07-23T11:49:59;1.33;;;1.23;;
13816;SDS011;6979;52.116;5.286;2022-07-23T11:52:27;1.00;;;1.00;;
13816;SDS011;6979;52.116;5.286;2022-07-23T11:54:57;1.30;;;1.30;;
13816;SDS011;6979;52.116;5.286;2022-07-23T11:57:26;1.60;;;1.50;;
13816;SDS011;6979;52.116;5.286;2022-07-23T11:59:57;1.27;;;1.27;;
13816;SDS011;6979;52.116;5.286;2022-07-23T12:02:37;1.57;;;1.43;;
13816;SDS011;6979;52.116;5.286;2022-07-23T12:05:05;2.10;;;1.50;;
13816;SDS011;6979;52.116;5.286;2022-07-23T12:07:35;1.43;;;1.43;;
13816;SDS011;6979;52.116;5.286;2022-07-23T12:10:03;1.37;;;1.37;;
13816;SDS011;6979;52.116;5.286;2022-07-23T12:12:35;1.57;;;1.50;;
13816;SDS011;6979;52.116;5.286;2022-07-23T12:15:05;1.40;;;1.40;;
13816;SDS011;6979;52.116;5.286;2022-07-23T12:17:36;1.30;;;1.30;;
13816;SDS011;6979;52.116;5.286;2022-07-23T12:20:05;1.47;;;1.37;;
13816;SDS011;6979;52.116;5.286;2022-07-23T12:22:34;1.23;;;1.23;;
13816;SDS011;6979;52.116;5.286;2022-07-23T12:25:03;1.40;;;1.40;;
13816;SDS011;6979;52.116;5.286;2022-07-23T12:27:32;1.70;;;1.60;;
13816;SDS011;6979;52.116;5.286;2022-07-23T12:30:14;1.40;;;1.30;;
13816;SDS011;6979;52.116;5.286;2022-07-23T12:32:43;3.27;;;1.60;;
13816;SDS011;6979;52.116;5.286;2022-07-23T12:35:12;1.40;;;1.40;;
13816;SDS011;6979;52.116;5.286;2022-07-23T12:37:40;1.33;;;1.23;;
13816;SDS011;6979;52.116;5.286;2022-07-23T12:40:27;1.30;;;1.30;;
13816;SDS011;6979;52.116;5.286;2022-07-23T12:42:57;1.80;;;1.70;;
13816;SDS011;6979;52.116;5.286;2022-07-23T12:45:26;1.57;;;1.50;;
13816;SDS011;6979;52.116;5.286;2022-07-23T12:48:01;1.87;;;1.87;;
13816;SDS011;6979;52.116;5.286;2022-07-23T12:50:38;1.63;;;1.60;;
13816;SDS011;6979;52.116;5.286;2022-07-23T12:53:14;1.90;;;1.80;;
13816;SDS011;6979;52.116;5.286;2022-07-23T12:55:43;1.70;;;1.70;;
13816;SDS011;6979;52.116;5.286;2022-07-23T12:58:12;1.93;;;1.77;;
13816;SDS011;6979;52.116;5.286;2022-07-23T13:00:56;1.80;;;1.70;;
13816;SDS011;6979;52.116;5.286;2022-07-23T13:03:25;2.17;;;2.07;;
13816;SDS011;6979;52.116;5.286;2022-07-23T13:05:57;1.90;;;1.90;;
13816;SDS011;6979;52.116;5.286;2022-07-23T13:08:25;1.57;;;1.57;;
13816;SDS011;6979;52.116;5.286;2022-07-23T13:10:53;1.87;;;1.87;;
13816;SDS011;6979;52.116;5.286;2022-07-23T13:13:21;1.60;;;1.60;;
13816;SDS011;6979;52.116;5.286;2022-07-23T13:15:48;1.80;;;1.70;;
13816;SDS011;6979;52.116;5.286;2022-07-23T13:18:17;2.10;;;2.00;;
13816;SDS011;6979;52.116;5.286;2022-07-23T13:20:44;1.90;;;1.80;;
13816;SDS011;6979;52.116;5.286;2022-07-23T13:23:12;2.20;;;2.00;;
13816;SDS011;6979;52.116;5.286;2022-07-23T13:25:40;1.93;;;1.80;;
13816;SDS011;6979;52.116;5.286;2022-07-23T13:28:07;2.07;;;1.97;;
13816;SDS011;6979;52.116;5.286;2022-07-23T13:30:35;2.07;;;1.97;;
13816;SDS011;6979;52.116;5.286;2022-07-23T13:33:02;1.77;;;1.67;;
13816;SDS011;6979;52.116;5.286;2022-07-23T13:35:31;1.83;;;1.80;;
13816;SDS011;6979;52.116;5.286;2022-07-23T13:37:58;1.60;;;1.50;;
13816;SDS011;6979;52.116;5.286;2022-07-23T13:40:25;2.10;;;2.00;;
13816;SDS011;6979;52.116;5.286;2022-07-23T13:42:52;2.10;;;2.00;;
13816;SDS011;6979;52.116;5.286;2022-07-23T13:45:19;2.10;;;2.00;;
13816;SDS011;6979;52.116;5.286;2022-07-23T13:47:46;1.80;;;1.70;;
13816;SDS011;6979;52.116;5.286;2022-07-23T13:50:13;1.87;;;1.77;;
13816;SDS011;6979;52.116;5.286;2022-07-23T13:52:42;1.90;;;1.70;;
13816;SDS011;6979;52.116;5.286;2022-07-23T13:55:10;1.77;;;1.70;;
13816;SDS011;6979;52.116;5.286;2022-07-23T13:57:37;2.03;;;1.60;;
13816;SDS011;6979;52.116;5.286;2022-07-23T14:00:04;2.23;;;2.10;;
13816;SDS011;6979;52.116;5.286;2022-07-23T14:02:33;1.87;;;1.77;;
13816;SDS011;6979;52.116;5.286;2022-07-23T14:05:02;1.87;;;1.77;;
13816;SDS011;6979;52.116;5.286;2022-07-23T14:07:29;1.80;;;1.73;;
13816;SDS011;6979;52.116;5.286;2022-07-23T14:09:57;1.97;;;1.87;;
13816;SDS011;6979;52.116;5.286;2022-07-23T14:12:24;1.87;;;1.77;;
13816;SDS011;6979;52.116;5.286;2022-07-23T14:14:51;1.80;;;1.80;;
13816;SDS011;6979;52.116;5.286;2022-07-23T14:17:18;1.70;;;1.70;;
13816;SDS011;6979;52.116;5.286;2022-07-23T14:19:45;1.60;;;1.60;;
13816;SDS011;6979;52.116;5.286;2022-07-23T14:22:12;1.70;;;1.70;;
13816;SDS011;6979;52.116;5.286;2022-07-23T14:24:39;1.97;;;1.87;;
13816;SDS011;6979;52.116;5.286;2022-07-23T14:27:07;2.23;;;2.13;;
13816;SDS011;6979;52.116;5.286;2022-07-23T14:29:35;2.47;;;1.90;;
13816;SDS011;6979;52.116;5.286;2022-07-23T14:32:02;2.20;;;2.10;;
13816;SDS011;6979;52.116;5.286;2022-07-23T14:34:30;2.00;;;1.90;;
13816;SDS011;6979;52.116;5.286;2022-07-23T14:36:57;1.80;;;1.70;;
13816;SDS011;6979;52.116;5.286;2022-07-23T14:39:24;2.00;;;1.90;;
13816;SDS011;6979;52.116;5.286;2022-07-23T14:41:51;2.30;;;2.20;;
13816;SDS011;6979;52.116;5.286;2022-07-23T14:44:19;1.87;;;1.77;;
13816;SDS011;6979;52.116;5.286;2022-07-23T14:46:46;1.90;;;1.80;;
13816;SDS011;6979;52.116;5.286;2022-07-23T14:49:13;1.87;;;1.77;;
13816;SDS011;6979;52.116;5.286;2022-07-23T14:51:41;2.00;;;1.90;;
13816;SDS011;6979;52.116;5.286;2022-07-23T14:54:08;1.70;;;1.70;;
13816;SDS011;6979;52.116;5.286;2022-07-23T14:56:35;2.40;;;2.30;;
13816;SDS011;6979;52.116;5.286;2022-07-23T14:59:02;2.20;;;2.03;;
13816;SDS011;6979;52.116;5.286;2022-07-23T15:01:31;1.93;;;1.83;;
13816;SDS011;6979;52.116;5.286;2022-07-23T15:03:58;1.90;;;1.80;;
13816;SDS011;6979;52.116;5.286;2022-07-23T15:06:25;2.10;;;2.00;;
13816;SDS011;6979;52.116;5.286;2022-07-23T15:08:52;1.93;;;1.83;;
13816;SDS011;6979;52.116;5.286;2022-07-23T15:11:19;2.77;;;2.57;;
13816;SDS011;6979;52.116;5.286;2022-07-23T15:13:46;2.03;;;1.93;;
13816;SDS011;6979;52.116;5.286;2022-07-23T15:16:12;1.53;;;1.53;;
13816;SDS011;6979;52.116;5.286;2022-07-23T15:18:41;1.97;;;1.87;;
13816;SDS011;6979;52.116;5.286;2022-07-23T15:21:07;1.90;;;1.80;;
13816;SDS011;6979;52.116;5.286;2022-07-23T15:23:34;2.00;;;1.90;;
13816;SDS011;6979;52.116;5.286;2022-07-23T15:26:04;2.23;;;2.13;;